FDX8M KMIA-SABE
Flight info
| Callsign | FDX8M |
|---|---|
| Flight time | N/A |
| Altitude | 31000 |
| Route | GWAVA2 URSUS UP406 BILSI DCT ALTIB UL795 LENAX UL417 NEFTU UP525 EJA/N0500F320 UG444 VVC/N0500F330 UP530 SJE UP525 RCO UL417 NIRBO/N0491F350 UL417 TOPOG UL404 ISOPO UT672 MULTA UW24 SNT SNT9R |
| Aircraft | MD11/H-SDE1E2E3FGHIJ2J3J4J5M1RWXY/LB1D1 |
Departure
| Time | N/A |
|---|---|
| Airport | Miami International Airport (KMIA) |
Arrival
| Time | 2026-05-03 22:54 |
|---|---|
| Airport | Aeroparque Jorge Newbery (SABE) |
| Time | Latitude | Longitude | Altitude | Speed | Heading |
|---|---|---|---|---|---|
| 2026-05-03 20:15 | -16.61449 | -65.80884 | 35195 ft | 492 kts | 166° |
| 2026-05-03 20:15 | -16.67993 | -65.78838 | 35221 ft | 491 kts | 166° |
| 2026-05-03 20:16 | -16.74546 | -65.76789 | 35219 ft | 491 kts | 166° |
| 2026-05-03 20:16 | -16.81099 | -65.74739 | 35254 ft | 492 kts | 166° |
| 2026-05-03 20:17 | -16.87658 | -65.72691 | 35211 ft | 491 kts | 167° |
| 2026-05-03 20:17 | -16.94197 | -65.70655 | 35263 ft | 488 kts | 167° |
| 2026-05-03 20:18 | -17.00685 | -65.68636 | 35256 ft | 486 kts | 167° |
| 2026-05-03 20:18 | -17.07177 | -65.66616 | 35259 ft | 486 kts | 167° |
| 2026-05-03 20:19 | -17.13666 | -65.64602 | 35262 ft | 487 kts | 167° |
| 2026-05-03 20:19 | -17.20116 | -65.62600 | 35293 ft | 487 kts | 167° |
| 2026-05-03 20:20 | -17.26604 | -65.60588 | 35260 ft | 486 kts | 167° |
| 2026-05-03 20:20 | -17.33106 | -65.58566 | 35286 ft | 488 kts | 167° |
| 2026-05-03 20:21 | -17.39622 | -65.56539 | 35311 ft | 488 kts | 167° |
| 2026-05-03 20:21 | -17.46140 | -65.54512 | 35304 ft | 489 kts | 167° |
| 2026-05-03 20:22 | -17.52668 | -65.52511 | 35292 ft | 487 kts | 167° |
| 2026-05-03 20:22 | -17.59158 | -65.50533 | 35296 ft | 485 kts | 167° |
| 2026-05-03 20:23 | -17.65660 | -65.48553 | 35262 ft | 486 kts | 167° |
| 2026-05-03 20:23 | -17.72153 | -65.46555 | 35259 ft | 486 kts | 167° |
| 2026-05-03 20:24 | -17.78637 | -65.44547 | 35225 ft | 485 kts | 166° |
| 2026-05-03 20:24 | -17.85119 | -65.42539 | 35227 ft | 488 kts | 167° |
| 2026-05-03 20:25 | -17.91649 | -65.40518 | 35179 ft | 490 kts | 167° |
| 2026-05-03 20:25 | -17.98160 | -65.38500 | 35181 ft | 491 kts | 167° |
| 2026-05-03 20:26 | -18.04714 | -65.36467 | 35146 ft | 490 kts | 167° |
| 2026-05-03 20:26 | -18.11252 | -65.34437 | 35142 ft | 490 kts | 167° |
| 2026-05-03 20:27 | -18.17767 | -65.32412 | 35120 ft | 487 kts | 168° |
| 2026-05-03 20:27 | -18.24253 | -65.30396 | 35106 ft | 486 kts | 168° |
| 2026-05-03 20:28 | -18.30749 | -65.28376 | 35082 ft | 486 kts | 167° |
| 2026-05-03 20:28 | -18.37241 | -65.26354 | 35096 ft | 486 kts | 167° |
| 2026-05-03 20:29 | -18.43743 | -65.24329 | 35101 ft | 487 kts | 168° |
| 2026-05-03 20:29 | -18.50181 | -65.22319 | 35076 ft | 486 kts | 168° |
| 2026-05-03 20:30 | -18.56661 | -65.20293 | 35074 ft | 485 kts | 168° |
| 2026-05-03 20:30 | -18.63139 | -65.18268 | 35074 ft | 485 kts | 168° |
| 2026-05-03 20:31 | -18.69618 | -65.16243 | 35070 ft | 485 kts | 168° |
| 2026-05-03 20:31 | -18.76105 | -65.14215 | 35068 ft | 487 kts | 168° |
| 2026-05-03 20:32 | -18.82608 | -65.12179 | 35072 ft | 488 kts | 168° |
| 2026-05-03 20:32 | -18.88008 | -65.10488 | 35074 ft | 488 kts | 168° |
| 2026-05-03 20:33 | -18.94512 | -65.08464 | 35045 ft | 486 kts | 168° |
| 2026-05-03 20:33 | -19.01015 | -65.06443 | 35210 ft | 488 kts | 168° |
| 2026-05-03 20:34 | -19.07532 | -65.04417 | 35272 ft | 489 kts | 168° |
| 2026-05-03 20:34 | -19.14065 | -65.02383 | 35318 ft | 489 kts | 168° |
| 2026-05-03 20:35 | -19.20591 | -65.00339 | 35331 ft | 489 kts | 168° |
| 2026-05-03 20:35 | -19.27121 | -64.98284 | 35309 ft | 490 kts | 168° |
| 2026-05-03 20:36 | -19.33654 | -64.96225 | 35247 ft | 489 kts | 168° |
| 2026-05-03 20:36 | -19.40182 | -64.94179 | 35171 ft | 489 kts | 168° |
| 2026-05-03 20:37 | -19.46719 | -64.92158 | 35069 ft | 489 kts | 169° |
| 2026-05-03 20:37 | -19.53211 | -64.90156 | 34994 ft | 488 kts | 169° |
| 2026-05-03 20:38 | -19.59745 | -64.88137 | 34979 ft | 489 kts | 169° |
| 2026-05-03 20:38 | -19.66284 | -64.86112 | 34973 ft | 489 kts | 168° |
| 2026-05-03 20:39 | -19.72826 | -64.84085 | 34977 ft | 489 kts | 169° |
| 2026-05-03 20:39 | -19.79358 | -64.82058 | 34961 ft | 489 kts | 168° |
| 2026-05-03 20:40 | -19.85898 | -64.80026 | 34966 ft | 490 kts | 169° |
| 2026-05-03 20:40 | -19.92444 | -64.77996 | 34968 ft | 490 kts | 169° |
| 2026-05-03 20:41 | -19.98988 | -64.75960 | 34962 ft | 489 kts | 169° |
| 2026-05-03 20:41 | -20.05519 | -64.73929 | 34958 ft | 489 kts | 168° |
| 2026-05-03 20:42 | -20.12052 | -64.71894 | 34977 ft | 488 kts | 168° |
| 2026-05-03 20:42 | -20.18577 | -64.69858 | 34983 ft | 489 kts | 168° |
| 2026-05-03 20:43 | -20.25109 | -64.67815 | 34984 ft | 489 kts | 168° |
| 2026-05-03 20:43 | -20.31606 | -64.65785 | 34992 ft | 490 kts | 169° |
| 2026-05-03 20:44 | -20.38150 | -64.63752 | 34997 ft | 489 kts | 169° |
| 2026-05-03 20:44 | -20.44684 | -64.61730 | 34996 ft | 488 kts | 169° |
| 2026-05-03 20:45 | -20.51221 | -64.59707 | 35010 ft | 488 kts | 169° |
| 2026-05-03 20:45 | -20.57737 | -64.57688 | 35007 ft | 488 kts | 168° |
| 2026-05-03 20:46 | -20.64252 | -64.55668 | 35000 ft | 486 kts | 168° |
| 2026-05-03 20:46 | -20.70755 | -64.53650 | 35003 ft | 486 kts | 168° |
| 2026-05-03 20:47 | -20.77255 | -64.51630 | 35016 ft | 487 kts | 169° |
| 2026-05-03 20:47 | -20.83752 | -64.49611 | 35013 ft | 485 kts | 169° |
| 2026-05-03 20:48 | -20.90236 | -64.47592 | 34997 ft | 485 kts | 169° |
| 2026-05-03 20:48 | -20.96718 | -64.45573 | 35009 ft | 485 kts | 169° |
| 2026-05-03 20:49 | -21.03213 | -64.43552 | 35003 ft | 487 kts | 169° |
| 2026-05-03 20:49 | -21.09720 | -64.41527 | 35008 ft | 486 kts | 169° |
| 2026-05-03 20:50 | -21.16163 | -64.39520 | 35011 ft | 485 kts | 169° |
| 2026-05-03 20:50 | -21.22661 | -64.37496 | 34993 ft | 486 kts | 169° |
| 2026-05-03 20:51 | -21.29155 | -64.35470 | 34990 ft | 486 kts | 169° |
| 2026-05-03 20:51 | -21.35646 | -64.33445 | 34998 ft | 486 kts | 169° |
| 2026-05-03 20:52 | -21.42147 | -64.31429 | 35000 ft | 486 kts | 169° |
| 2026-05-03 20:52 | -21.48654 | -64.29416 | 34997 ft | 485 kts | 169° |
| 2026-05-03 20:53 | -21.55143 | -64.27408 | 34987 ft | 485 kts | 169° |
| 2026-05-03 20:53 | -21.61640 | -64.25396 | 34992 ft | 486 kts | 169° |
| 2026-05-03 20:54 | -21.68095 | -64.23394 | 34990 ft | 486 kts | 169° |
| 2026-05-03 20:54 | -21.77835 | -64.20369 | 34987 ft | 485 kts | 169° |
| 2026-05-03 20:55 | -21.84343 | -64.18346 | 34987 ft | 487 kts | 169° |
| 2026-05-03 20:55 | -21.90849 | -64.16321 | 35000 ft | 486 kts | 169° |
| 2026-05-03 20:56 | -21.97321 | -64.14303 | 34989 ft | 483 kts | 170° |
| 2026-05-03 20:56 | -22.03776 | -64.12291 | 34993 ft | 483 kts | 170° |
| 2026-05-03 20:57 | -22.10238 | -64.10275 | 34994 ft | 483 kts | 170° |
| 2026-05-03 20:57 | -22.16696 | -64.08256 | 34989 ft | 483 kts | 170° |
| 2026-05-03 20:58 | -22.23147 | -64.06231 | 35005 ft | 482 kts | 169° |
| 2026-05-03 20:58 | -22.29570 | -64.04141 | 34997 ft | 482 kts | 169° |
| 2026-05-03 20:59 | -22.35940 | -64.02025 | 35003 ft | 481 kts | 169° |
| 2026-05-03 20:59 | -22.42338 | -63.99897 | 34996 ft | 480 kts | 169° |
| 2026-05-03 21:00 | -22.46617 | -63.98477 | 35013 ft | 481 kts | 169° |
| 2026-05-03 21:00 | -22.55125 | -63.95655 | 35001 ft | 480 kts | 169° |
| 2026-05-03 21:01 | -22.61514 | -63.93533 | 34997 ft | 480 kts | 169° |
| 2026-05-03 21:01 | -22.67908 | -63.91406 | 35009 ft | 480 kts | 169° |
| 2026-05-03 21:02 | -22.74291 | -63.89281 | 35021 ft | 480 kts | 169° |
| 2026-05-03 21:02 | -22.80676 | -63.87153 | 35004 ft | 480 kts | 169° |
| 2026-05-03 21:03 | -22.87052 | -63.85027 | 34996 ft | 480 kts | 169° |
| 2026-05-03 21:03 | -22.93434 | -63.82897 | 34996 ft | 480 kts | 169° |
| 2026-05-03 21:04 | -22.99817 | -63.80764 | 34999 ft | 480 kts | 169° |
| 2026-05-03 21:04 | -23.06151 | -63.78643 | 34999 ft | 480 kts | 169° |
| 2026-05-03 21:05 | -23.12525 | -63.76503 | 35001 ft | 480 kts | 169° |
| 2026-05-03 21:05 | -23.18898 | -63.74365 | 35007 ft | 480 kts | 169° |
| 2026-05-03 21:06 | -23.25292 | -63.72219 | 34999 ft | 480 kts | 169° |
| 2026-05-03 21:06 | -23.31674 | -63.70076 | 35007 ft | 479 kts | 169° |
| 2026-05-03 21:07 | -23.38041 | -63.67934 | 35002 ft | 479 kts | 169° |
| 2026-05-03 21:07 | -23.44414 | -63.65790 | 35004 ft | 479 kts | 169° |
| 2026-05-03 21:08 | -23.50782 | -63.63645 | 35008 ft | 479 kts | 169° |
| 2026-05-03 21:08 | -23.57152 | -63.61497 | 35014 ft | 479 kts | 169° |
| 2026-05-03 21:09 | -23.63507 | -63.59351 | 35004 ft | 477 kts | 170° |
| 2026-05-03 21:09 | -23.69810 | -63.57221 | 35002 ft | 477 kts | 170° |
| 2026-05-03 21:10 | -23.76151 | -63.55077 | 35000 ft | 477 kts | 170° |
| 2026-05-03 21:10 | -23.82504 | -63.52926 | 34999 ft | 477 kts | 169° |
| 2026-05-03 21:11 | -23.88844 | -63.50772 | 35002 ft | 477 kts | 170° |
| 2026-05-03 21:11 | -23.95177 | -63.48619 | 35001 ft | 477 kts | 170° |
| 2026-05-03 21:12 | -24.01515 | -63.46466 | 35001 ft | 477 kts | 170° |
| 2026-05-03 21:12 | -24.07853 | -63.44311 | 35001 ft | 477 kts | 170° |
| 2026-05-03 21:13 | -24.14179 | -63.42157 | 35003 ft | 475 kts | 170° |
| 2026-05-03 21:13 | -24.20446 | -63.40021 | 35004 ft | 474 kts | 170° |
| 2026-05-03 21:14 | -24.26752 | -63.37872 | 35004 ft | 474 kts | 170° |
| 2026-05-03 21:14 | -24.33053 | -63.35721 | 34999 ft | 475 kts | 170° |
| 2026-05-03 21:15 | -24.39354 | -63.33567 | 35003 ft | 473 kts | 171° |
| 2026-05-03 21:15 | -24.45625 | -63.31420 | 34999 ft | 472 kts | 171° |
| 2026-05-03 21:16 | -24.51897 | -63.29273 | 35001 ft | 472 kts | 171° |
| 2026-05-03 21:16 | -24.58166 | -63.27125 | 35001 ft | 472 kts | 171° |
| 2026-05-03 21:17 | -24.63381 | -63.25333 | 35015 ft | 472 kts | 171° |
| 2026-05-03 21:17 | -24.70704 | -63.22812 | 34999 ft | 471 kts | 171° |
| 2026-05-03 21:18 | -24.76962 | -63.20658 | 34996 ft | 471 kts | 171° |
| 2026-05-03 21:18 | -24.82156 | -63.18871 | 34996 ft | 471 kts | 171° |
| 2026-05-03 21:19 | -24.88414 | -63.16716 | 34996 ft | 471 kts | 171° |
| 2026-05-03 21:19 | -24.94664 | -63.14560 | 34998 ft | 470 kts | 171° |
| 2026-05-03 21:20 | -25.00919 | -63.12401 | 34995 ft | 470 kts | 171° |
| 2026-05-03 21:20 | -25.07156 | -63.10245 | 34993 ft | 469 kts | 171° |
| 2026-05-03 21:21 | -25.13345 | -63.08105 | 34996 ft | 469 kts | 171° |
| 2026-05-03 21:21 | -25.19582 | -63.05945 | 35001 ft | 469 kts | 171° |
| 2026-05-03 21:22 | -25.25806 | -63.03787 | 34996 ft | 469 kts | 171° |
| 2026-05-03 21:22 | -25.32031 | -63.01627 | 34999 ft | 469 kts | 171° |
| 2026-05-03 21:23 | -25.38261 | -62.99463 | 35000 ft | 469 kts | 171° |
| 2026-05-03 21:23 | -25.44480 | -62.97296 | 35002 ft | 468 kts | 171° |
| 2026-05-03 21:24 | -25.50694 | -62.95126 | 35000 ft | 468 kts | 171° |
| 2026-05-03 21:24 | -25.56861 | -62.92975 | 35000 ft | 468 kts | 171° |
| 2026-05-03 21:25 | -25.63099 | -62.90799 | 34995 ft | 468 kts | 171° |
| 2026-05-03 21:25 | -25.69282 | -62.88639 | 34999 ft | 468 kts | 171° |
| 2026-05-03 21:26 | -25.75481 | -62.86456 | 35005 ft | 468 kts | 171° |
| 2026-05-03 21:26 | -25.81676 | -62.84176 | 35003 ft | 469 kts | 170° |
| 2026-05-03 21:27 | -25.87862 | -62.81867 | 35001 ft | 469 kts | 170° |
| 2026-05-03 21:27 | -25.94042 | -62.79564 | 35025 ft | 468 kts | 171° |
| 2026-05-03 21:28 | -26.00210 | -62.77267 | 35001 ft | 467 kts | 171° |
| 2026-05-03 21:28 | -26.06375 | -62.74971 | 35005 ft | 467 kts | 171° |
| 2026-05-03 21:29 | -26.12544 | -62.72672 | 35004 ft | 467 kts | 171° |
| 2026-05-03 21:29 | -26.18707 | -62.70372 | 35028 ft | 467 kts | 171° |
| 2026-05-03 21:30 | -26.24858 | -62.68071 | 35011 ft | 466 kts | 171° |
| 2026-05-03 21:30 | -26.30971 | -62.65785 | 35010 ft | 466 kts | 171° |
| 2026-05-03 21:31 | -26.37119 | -62.63483 | 35008 ft | 466 kts | 171° |
| 2026-05-03 21:31 | -26.43264 | -62.61179 | 35006 ft | 466 kts | 171° |
| 2026-05-03 21:32 | -26.49402 | -62.58873 | 35009 ft | 465 kts | 171° |
| 2026-05-03 21:32 | -26.55529 | -62.56568 | 35006 ft | 464 kts | 171° |
| 2026-05-03 21:33 | -26.61652 | -62.54258 | 35005 ft | 464 kts | 171° |
| 2026-05-03 21:33 | -26.67777 | -62.51948 | 35007 ft | 464 kts | 171° |
| 2026-05-03 21:34 | -26.73885 | -62.49643 | 35015 ft | 463 kts | 171° |
| 2026-05-03 21:34 | -26.79984 | -62.47340 | 35012 ft | 462 kts | 171° |
| 2026-05-03 21:35 | -26.86077 | -62.45038 | 35012 ft | 462 kts | 171° |
| 2026-05-03 21:35 | -26.92170 | -62.42733 | 35012 ft | 462 kts | 171° |
| 2026-05-03 21:36 | -26.98261 | -62.40425 | 35023 ft | 461 kts | 171° |
| 2026-05-03 21:36 | -27.04298 | -62.38135 | 35015 ft | 461 kts | 171° |
| 2026-05-03 21:37 | -27.10372 | -62.35830 | 35018 ft | 461 kts | 171° |
| 2026-05-03 21:37 | -27.16441 | -62.33523 | 35019 ft | 461 kts | 171° |
| 2026-05-03 21:38 | -27.22507 | -62.31214 | 35023 ft | 460 kts | 171° |
| 2026-05-03 21:38 | -27.28566 | -62.28899 | 35018 ft | 460 kts | 171° |
| 2026-05-03 21:39 | -27.34629 | -62.26571 | 35021 ft | 460 kts | 171° |
| 2026-05-03 21:39 | -27.40688 | -62.24244 | 35020 ft | 460 kts | 171° |
| 2026-05-03 21:40 | -27.46748 | -62.21917 | 35029 ft | 460 kts | 171° |
| 2026-05-03 21:40 | -27.52811 | -62.19586 | 35021 ft | 461 kts | 171° |
| 2026-05-03 21:41 | -27.58880 | -62.17250 | 35021 ft | 461 kts | 171° |
| 2026-05-03 21:41 | -27.64946 | -62.14913 | 35023 ft | 461 kts | 171° |
| 2026-05-03 21:42 | -27.71013 | -62.12573 | 35028 ft | 461 kts | 170° |
| 2026-05-03 21:42 | -27.77083 | -62.10228 | 35023 ft | 461 kts | 170° |
| 2026-05-03 21:43 | -27.83153 | -62.07880 | 35023 ft | 461 kts | 170° |
| 2026-05-03 21:43 | -27.89234 | -62.05526 | 35023 ft | 461 kts | 170° |
| 2026-05-03 21:44 | -27.95307 | -62.03173 | 35034 ft | 462 kts | 170° |
| 2026-05-03 21:44 | -28.01354 | -62.00826 | 35026 ft | 462 kts | 170° |
| 2026-05-03 21:45 | -28.07472 | -61.98445 | 35026 ft | 462 kts | 170° |
| 2026-05-03 21:45 | -28.13517 | -61.96085 | 35026 ft | 462 kts | 170° |
| 2026-05-03 21:46 | -28.19608 | -61.93710 | 35026 ft | 462 kts | 170° |
| 2026-05-03 21:46 | -28.25695 | -61.91336 | 35027 ft | 462 kts | 170° |
| 2026-05-03 21:47 | -28.31768 | -61.88965 | 35029 ft | 462 kts | 170° |
| 2026-05-03 21:47 | -28.37850 | -61.86587 | 35029 ft | 462 kts | 170° |
| 2026-05-03 21:48 | -28.43920 | -61.84212 | 35031 ft | 461 kts | 169° |
| 2026-05-03 21:48 | -28.50037 | -61.82304 | 35025 ft | 450 kts | 179° |
| 2026-05-03 21:49 | -28.56210 | -61.81339 | 35030 ft | 446 kts | 181° |
| 2026-05-03 21:49 | -28.62384 | -61.80513 | 35030 ft | 447 kts | 181° |
| 2026-05-03 21:50 | -28.68558 | -61.79630 | 35039 ft | 447 kts | 181° |
| 2026-05-03 21:50 | -28.74727 | -61.78709 | 35036 ft | 447 kts | 181° |
| 2026-05-03 21:51 | -28.80861 | -61.77784 | 35028 ft | 447 kts | 181° |
| 2026-05-03 21:51 | -28.87006 | -61.76857 | 35027 ft | 447 kts | 181° |
| 2026-05-03 21:52 | -28.93180 | -61.75925 | 35045 ft | 447 kts | 180° |
| 2026-05-03 21:52 | -28.99347 | -61.74992 | 35033 ft | 447 kts | 180° |
| 2026-05-03 21:53 | -29.05505 | -61.74061 | 35034 ft | 447 kts | 180° |
| 2026-05-03 21:53 | -29.11665 | -61.73128 | 35034 ft | 447 kts | 180° |
| 2026-05-03 21:54 | -29.17833 | -61.72193 | 35039 ft | 446 kts | 180° |
| 2026-05-03 21:54 | -29.23994 | -61.71257 | 35032 ft | 446 kts | 180° |
| 2026-05-03 21:55 | -29.30148 | -61.70322 | 35032 ft | 446 kts | 180° |
| 2026-05-03 21:55 | -29.36263 | -61.69391 | 35030 ft | 446 kts | 180° |
| 2026-05-03 21:56 | -29.42420 | -61.68458 | 35033 ft | 446 kts | 180° |
| 2026-05-03 21:56 | -29.48572 | -61.67525 | 35035 ft | 446 kts | 180° |
| 2026-05-03 21:57 | -29.54727 | -61.66592 | 35034 ft | 446 kts | 180° |
| 2026-05-03 21:57 | -29.60888 | -61.65656 | 35034 ft | 446 kts | 180° |
| 2026-05-03 21:58 | -29.67050 | -61.64720 | 35039 ft | 447 kts | 180° |
| 2026-05-03 21:58 | -29.73212 | -61.63782 | 35035 ft | 447 kts | 180° |
| 2026-05-03 21:59 | -29.79380 | -61.62842 | 35037 ft | 447 kts | 180° |
| 2026-05-03 21:59 | -29.85542 | -61.61901 | 35035 ft | 447 kts | 180° |
| 2026-05-03 22:00 | -29.91710 | -61.60958 | 35046 ft | 447 kts | 180° |
| 2026-05-03 22:00 | -29.97886 | -61.60014 | 35041 ft | 447 kts | 180° |
| 2026-05-03 22:01 | -30.04058 | -61.59068 | 35036 ft | 448 kts | 180° |
| 2026-05-03 22:01 | -30.10234 | -61.58121 | 35034 ft | 448 kts | 180° |
| 2026-05-03 22:02 | -30.16374 | -61.57177 | 35040 ft | 448 kts | 180° |
| 2026-05-03 22:02 | -30.22549 | -61.56224 | 35037 ft | 448 kts | 180° |
| 2026-05-03 22:03 | -30.28724 | -61.55271 | 35037 ft | 448 kts | 180° |
| 2026-05-03 22:03 | -30.34908 | -61.54318 | 35036 ft | 448 kts | 180° |
| 2026-05-03 22:04 | -30.41084 | -61.53364 | 35042 ft | 447 kts | 180° |
| 2026-05-03 22:04 | -30.46214 | -61.52571 | 35037 ft | 447 kts | 180° |
| 2026-05-03 22:05 | -30.52381 | -61.51616 | 35037 ft | 447 kts | 180° |
| 2026-05-03 22:05 | -30.58547 | -61.50653 | 35037 ft | 447 kts | 180° |
| 2026-05-03 22:06 | -30.64719 | -61.49686 | 35037 ft | 447 kts | 180° |
| 2026-05-03 22:06 | -30.70890 | -61.48719 | 35037 ft | 447 kts | 180° |
| 2026-05-03 22:07 | -30.77064 | -61.47753 | 35034 ft | 447 kts | 180° |
| 2026-05-03 22:07 | -30.83229 | -61.46788 | 35034 ft | 447 kts | 180° |
| 2026-05-03 22:08 | -30.89394 | -61.45822 | 35041 ft | 447 kts | 180° |
| 2026-05-03 22:08 | -30.95553 | -61.44856 | 35038 ft | 447 kts | 180° |
| 2026-05-03 22:09 | -31.01716 | -61.43889 | 35037 ft | 447 kts | 180° |
| 2026-05-03 22:10 | -31.10964 | -61.42434 | 35043 ft | 447 kts | 180° |
| 2026-05-03 22:10 | -31.17125 | -61.41464 | 35038 ft | 447 kts | 180° |
| 2026-05-03 22:11 | -31.23283 | -61.40492 | 35039 ft | 447 kts | 180° |
| 2026-05-03 22:11 | -31.29441 | -61.39519 | 35035 ft | 447 kts | 180° |
| 2026-05-03 22:12 | -31.35576 | -61.38042 | 35035 ft | 456 kts | 171° |
| 2026-05-03 22:12 | -31.41632 | -61.35729 | 35035 ft | 459 kts | 169° |
| 2026-05-03 22:13 | -31.47678 | -61.33316 | 35034 ft | 458 kts | 169° |
| 2026-05-03 22:13 | -31.53721 | -61.30962 | 35030 ft | 457 kts | 169° |
| 2026-05-03 22:14 | -31.59765 | -61.28642 | 35035 ft | 457 kts | 169° |
| 2026-05-03 22:14 | -31.65786 | -61.26336 | 35032 ft | 457 kts | 169° |
| 2026-05-03 22:15 | -31.71833 | -61.24014 | 35031 ft | 457 kts | 169° |
| 2026-05-03 22:15 | -31.77880 | -61.21688 | 35046 ft | 457 kts | 169° |
| 2026-05-03 22:16 | -31.83935 | -61.19356 | 35035 ft | 458 kts | 169° |
| 2026-05-03 22:16 | -31.89984 | -61.17022 | 35031 ft | 458 kts | 169° |
| 2026-05-03 22:17 | -31.96042 | -61.14682 | 35028 ft | 458 kts | 169° |
| 2026-05-03 22:17 | -32.02095 | -61.12340 | 35035 ft | 458 kts | 169° |
| 2026-05-03 22:18 | -32.08145 | -61.09997 | 35032 ft | 458 kts | 169° |
| 2026-05-03 22:18 | -32.14198 | -61.07644 | 35029 ft | 458 kts | 169° |
| 2026-05-03 22:19 | -32.20255 | -61.05282 | 35029 ft | 458 kts | 169° |
| 2026-05-03 22:19 | -32.26280 | -61.02934 | 35032 ft | 456 kts | 169° |
| 2026-05-03 22:20 | -32.32306 | -61.00586 | 35032 ft | 456 kts | 169° |
| 2026-05-03 22:20 | -32.38326 | -60.98239 | 35031 ft | 456 kts | 169° |
| 2026-05-03 22:21 | -32.44356 | -60.95884 | 35041 ft | 456 kts | 169° |
| 2026-05-03 22:21 | -32.50381 | -60.93527 | 35032 ft | 456 kts | 169° |
| 2026-05-03 22:22 | -32.56406 | -60.91167 | 35032 ft | 456 kts | 169° |
| 2026-05-03 22:22 | -32.62428 | -60.88805 | 35032 ft | 456 kts | 169° |
| 2026-05-03 22:23 | -32.68448 | -60.86438 | 35045 ft | 454 kts | 169° |
| 2026-05-03 22:23 | -32.74440 | -60.84080 | 35044 ft | 454 kts | 169° |
| 2026-05-03 22:24 | -32.80438 | -60.81718 | 35047 ft | 454 kts | 169° |
| 2026-05-03 22:24 | -32.86429 | -60.79355 | 35048 ft | 454 kts | 169° |
| 2026-05-03 22:25 | -32.92398 | -60.76885 | 35045 ft | 459 kts | 164° |
| 2026-05-03 22:25 | -32.98094 | -60.73297 | 35049 ft | 466 kts | 157° |
| 2026-05-03 22:26 | -33.03634 | -60.69245 | 35041 ft | 470 kts | 152° |
| 2026-05-03 22:26 | -33.08663 | -60.64083 | 35041 ft | 481 kts | 144° |
| 2026-05-03 22:27 | -33.13518 | -60.58596 | 35032 ft | 480 kts | 145° |
| 2026-05-03 22:27 | -33.18441 | -60.53295 | 35034 ft | 479 kts | 146° |
| 2026-05-03 22:28 | -33.23454 | -60.48056 | 35039 ft | 478 kts | 147° |
| 2026-05-03 22:28 | -33.28480 | -60.42828 | 35039 ft | 478 kts | 147° |
| 2026-05-03 22:29 | -33.33488 | -60.37602 | 35039 ft | 478 kts | 146° |
| 2026-05-03 22:29 | -33.38492 | -60.32368 | 35040 ft | 478 kts | 146° |
| 2026-05-03 22:30 | -33.43498 | -60.27120 | 35056 ft | 478 kts | 146° |
| 2026-05-03 22:30 | -33.48501 | -60.21868 | 35045 ft | 478 kts | 146° |
| 2026-05-03 22:31 | -33.53501 | -60.16609 | 35044 ft | 478 kts | 146° |
| 2026-05-03 22:31 | -33.58497 | -60.11346 | 35046 ft | 477 kts | 146° |
| 2026-05-03 22:32 | -33.63488 | -60.06082 | 35051 ft | 478 kts | 146° |
| 2026-05-03 22:32 | -33.68472 | -60.00792 | 35048 ft | 478 kts | 146° |
| 2026-05-03 22:33 | -33.73452 | -59.95502 | 35046 ft | 478 kts | 146° |
| 2026-05-03 22:33 | -33.78441 | -59.90208 | 35048 ft | 478 kts | 146° |
| 2026-05-03 22:34 | -33.83426 | -59.84915 | 35051 ft | 476 kts | 146° |
| 2026-05-03 22:34 | -33.85889 | -59.82292 | 34376 ft | 471 kts | 146° |
| 2026-05-03 22:34 | -33.88330 | -59.79689 | 33673 ft | 465 kts | 146° |
| 2026-05-03 22:34 | -33.90729 | -59.77131 | 33002 ft | 458 kts | 146° |
| 2026-05-03 22:35 | -33.93085 | -59.74621 | 32405 ft | 459 kts | 146° |
| 2026-05-03 22:35 | -33.95486 | -59.72069 | 31812 ft | 462 kts | 146° |
| 2026-05-03 22:35 | -33.97898 | -59.69503 | 31227 ft | 464 kts | 146° |
| 2026-05-03 22:35 | -34.00322 | -59.66920 | 30625 ft | 467 kts | 145° |
| 2026-05-03 22:36 | -34.02763 | -59.64313 | 29968 ft | 469 kts | 145° |
| 2026-05-03 22:36 | -34.05207 | -59.61698 | 29258 ft | 471 kts | 144° |
| 2026-05-03 22:36 | -34.07665 | -59.59066 | 28596 ft | 473 kts | 144° |
| 2026-05-03 22:36 | -34.10133 | -59.56420 | 27940 ft | 475 kts | 144° |
| 2026-05-03 22:37 | -34.12605 | -59.53768 | 27296 ft | 477 kts | 144° |
| 2026-05-03 22:37 | -34.15089 | -59.51102 | 26648 ft | 479 kts | 144° |
| 2026-05-03 22:37 | -34.17584 | -59.48422 | 25984 ft | 482 kts | 144° |
| 2026-05-03 22:37 | -34.20098 | -59.45719 | 25335 ft | 484 kts | 143° |
| 2026-05-03 22:38 | -34.22586 | -59.42952 | 24660 ft | 490 kts | 139° |
| 2026-05-03 22:38 | -34.24786 | -59.39769 | 23971 ft | 497 kts | 130° |
| 2026-05-03 22:38 | -34.26724 | -59.36292 | 23174 ft | 498 kts | 126° |
| 2026-05-03 22:38 | -34.28514 | -59.32737 | 22393 ft | 493 kts | 124° |
| 2026-05-03 22:39 | -34.30259 | -59.29174 | 21663 ft | 487 kts | 124° |
| 2026-05-03 22:39 | -34.31989 | -59.25678 | 20952 ft | 482 kts | 125° |
| 2026-05-03 22:39 | -34.33722 | -59.22239 | 20243 ft | 477 kts | 125° |
| 2026-05-03 22:39 | -34.35465 | -59.18837 | 19553 ft | 472 kts | 126° |
| 2026-05-03 22:40 | -34.37175 | -59.15530 | 18864 ft | 467 kts | 126° |
| 2026-05-03 22:40 | -34.38896 | -59.12217 | 18181 ft | 462 kts | 126° |
| 2026-05-03 22:40 | -34.40599 | -59.08943 | 17445 ft | 457 kts | 125° |
| 2026-05-03 22:40 | -34.42287 | -59.05695 | 16748 ft | 453 kts | 125° |
| 2026-05-03 22:41 | -34.43949 | -59.02491 | 16101 ft | 448 kts | 125° |
| 2026-05-03 22:41 | -34.45596 | -58.99311 | 15414 ft | 443 kts | 124° |
| 2026-05-03 22:41 | -34.47224 | -58.96164 | 14698 ft | 439 kts | 124° |
| 2026-05-03 22:41 | -34.48836 | -58.93044 | 13994 ft | 434 kts | 124° |
| 2026-05-03 22:42 | -34.50426 | -58.89966 | 13249 ft | 430 kts | 124° |
| 2026-05-03 22:42 | -34.52004 | -58.86906 | 12487 ft | 425 kts | 124° |
| 2026-05-03 22:42 | -34.53563 | -58.83881 | 11745 ft | 420 kts | 123° |
| 2026-05-03 22:42 | -34.55103 | -58.80891 | 11030 ft | 415 kts | 123° |
| 2026-05-03 22:43 | -34.56491 | -58.77849 | 10314 ft | 412 kts | 115° |
| 2026-05-03 22:43 | -34.57554 | -58.74656 | 9577 ft | 401 kts | 110° |
| 2026-05-03 22:43 | -34.58423 | -58.71548 | 8801 ft | 377 kts | 108° |
| 2026-05-03 22:43 | -34.59201 | -58.68588 | 8055 ft | 359 kts | 107° |
| 2026-05-03 22:44 | -34.59939 | -58.65769 | 7318 ft | 345 kts | 107° |
| 2026-05-03 22:44 | -34.60662 | -58.63043 | 6596 ft | 333 kts | 107° |
| 2026-05-03 22:44 | -34.61360 | -58.60407 | 5848 ft | 323 kts | 107° |
| 2026-05-03 22:44 | -34.62036 | -58.57841 | 5094 ft | 315 kts | 107° |
| 2026-05-03 22:45 | -34.62697 | -58.55332 | 4357 ft | 309 kts | 106° |
| 2026-05-03 22:45 | -34.63335 | -58.52925 | 3957 ft | 291 kts | 105° |
| 2026-05-03 22:45 | -34.63945 | -58.50626 | 3600 ft | 279 kts | 105° |
| 2026-05-03 22:45 | -34.64519 | -58.48463 | 3231 ft | 267 kts | 105° |
| 2026-05-03 22:46 | -34.65076 | -58.46373 | 3014 ft | 245 kts | 104° |
| 2026-05-03 22:46 | -34.65594 | -58.44422 | 2994 ft | 241 kts | 104° |
| 2026-05-03 22:46 | -34.66098 | -58.42509 | 3005 ft | 241 kts | 104° |
| 2026-05-03 22:46 | -34.66608 | -58.40572 | 2996 ft | 241 kts | 104° |
| 2026-05-03 22:47 | -34.67100 | -58.38722 | 2974 ft | 214 kts | 104° |
| 2026-05-03 22:47 | -34.67532 | -58.37113 | 2944 ft | 194 kts | 103° |
| 2026-05-03 22:47 | -34.67950 | -58.35519 | 3032 ft | 200 kts | 103° |
| 2026-05-03 22:47 | -34.68369 | -58.33924 | 2979 ft | 194 kts | 103° |
| 2026-05-03 22:48 | -34.68766 | -58.32428 | 2963 ft | 180 kts | 103° |
| 2026-05-03 22:48 | -34.69145 | -58.30990 | 3012 ft | 178 kts | 102° |
| 2026-05-03 22:48 | -34.69394 | -58.30040 | 3000 ft | 178 kts | 102° |
| 2026-05-03 22:48 | -34.69690 | -58.28591 | 2989 ft | 174 kts | 90° |
| 2026-05-03 22:49 | -34.69644 | -58.27159 | 2980 ft | 167 kts | 70° |
| 2026-05-03 22:49 | -34.69217 | -58.25887 | 2987 ft | 160 kts | 50° |
| 2026-05-03 22:49 | -34.68487 | -58.24905 | 3001 ft | 155 kts | 31° |
| 2026-05-03 22:49 | -34.67558 | -58.24297 | 2999 ft | 150 kts | 13° |
| 2026-05-03 22:50 | -34.66537 | -58.24091 | 3016 ft | 152 kts | 1° |
| 2026-05-03 22:50 | -34.65473 | -58.24141 | 2992 ft | 153 kts | 343° |
| 2026-05-03 22:50 | -34.64622 | -58.24874 | 2941 ft | 156 kts | 309° |
| 2026-05-03 22:50 | -34.64180 | -58.26064 | 2787 ft | 154 kts | 296° |
| 2026-05-03 22:51 | -34.63810 | -58.27292 | 2608 ft | 154 kts | 297° |
| 2026-05-03 22:51 | -34.63331 | -58.28422 | 2298 ft | 149 kts | 306° |
| 2026-05-03 22:51 | -34.62776 | -58.29490 | 2021 ft | 149 kts | 310° |
| 2026-05-03 22:51 | -34.62185 | -58.30522 | 1758 ft | 149 kts | 310° |
| 2026-05-03 22:52 | -34.61582 | -58.31554 | 1608 ft | 150 kts | 311° |
| 2026-05-03 22:52 | -34.60988 | -58.32591 | 1430 ft | 150 kts | 310° |
| 2026-05-03 22:52 | -34.60394 | -58.33626 | 1277 ft | 149 kts | 311° |
| 2026-05-03 22:52 | -34.59793 | -58.34656 | 1114 ft | 150 kts | 309° |
| 2026-05-03 22:53 | -34.59209 | -58.35702 | 967 ft | 146 kts | 309° |
| 2026-05-03 22:53 | -34.58630 | -58.36737 | 781 ft | 152 kts | 308° |
| 2026-05-03 22:53 | -34.58039 | -58.37789 | 623 ft | 150 kts | 307° |
| 2026-05-03 22:53 | -34.57460 | -58.38829 | 413 ft | 150 kts | 307° |
| 2026-05-03 22:54 | -34.56859 | -58.39899 | 224 ft | 155 kts | 306° |
| 2026-05-03 22:54 | -34.56272 | -58.40957 | 37 ft | 139 kts | 306° |
| 2026-05-03 22:54 | -34.55827 | -58.41750 | 31 ft | 78 kts | 305° |
| 2026-05-03 22:54 | -34.55577 | -58.42196 | 35 ft | 45 kts | 304° |
| 2026-05-03 22:55 | -34.55462 | -58.42405 | 35 ft | 26 kts | 304° |
| 2026-05-03 22:55 | -34.55366 | -58.42576 | 33 ft | 23 kts | 304° |
| 2026-05-03 22:55 | -34.55310 | -58.42720 | 34 ft | 13 kts | 276° |
| 2026-05-03 22:55 | -34.55298 | -58.42777 | 34 ft | 1 kts | 310° |
| 2026-05-03 22:56 | -34.55285 | -58.42772 | 34 ft | 2 kts | 30° |
| 2026-05-03 22:56 | -34.55283 | -58.42723 | 34 ft | 11 kts | 107° |
| 2026-05-03 22:56 | -34.55327 | -58.42645 | 34 ft | 12 kts | 123° |
| 2026-05-03 22:56 | -34.55372 | -58.42564 | 34 ft | 12 kts | 123° |
| 2026-05-03 22:57 | -34.55424 | -58.42471 | 34 ft | 15 kts | 124° |
| 2026-05-03 22:57 | -34.55495 | -58.42345 | 36 ft | 19 kts | 124° |
| 2026-05-03 22:57 | -34.55577 | -58.42197 | 33 ft | 25 kts | 124° |
| 2026-05-03 22:57 | -34.55668 | -58.42034 | 33 ft | 19 kts | 124° |
| 2026-05-03 22:58 | -34.55710 | -58.41952 | 34 ft | 4 kts | 111° |
| 2026-05-03 22:58 | -34.55704 | -58.41904 | 31 ft | 6 kts | 59° |
| 2026-05-03 22:58 | -34.55694 | -58.41892 | 32 ft | 3 kts | 46° |
| 2026-05-03 22:58 | -34.55684 | -58.41883 | 33 ft | 1 kts | 37° |
| 2026-05-03 22:59 | -34.55677 | -58.41884 | 34 ft | 1 kts | 1° |
| 2026-05-03 22:59 | -34.55667 | -58.41890 | 34 ft | 3 kts | 333° |
| 2026-05-03 22:59 | -34.55655 | -58.41903 | 34 ft | 3 kts | 317° |
| 2026-05-03 22:59 | -34.55645 | -58.41915 | 34 ft | 1 kts | 317° |
| 2026-05-03 23:00 | -34.55630 | -58.41924 | 34 ft | 3 kts | 338° |
| 2026-05-03 23:00 | -34.55595 | -58.41928 | 34 ft | 5 kts | 1° |
| 2026-05-03 23:00 | -34.55573 | -58.41921 | 32 ft | 1 kts | 31° |
| 2026-05-03 23:00 | -34.55574 | -58.41906 | 34 ft | 2 kts | 101° |
| 2026-05-03 23:01 | -34.55585 | -58.41902 | 34 ft | 1 kts | 164° |
| 2026-05-03 23:01 | -34.55590 | -58.41905 | 34 ft | 0 kts | 192° |